sensor_id;sensor_type;location;lat;lon;timestamp;temperature;humidity
28189;DHT22;15471;51.166;4.470;2023-04-25T00:00:54;8.00;99.90
28189;DHT22;15471;51.166;4.470;2023-04-25T00:03:20;7.90;99.90
28189;DHT22;15471;51.166;4.470;2023-04-25T00:05:46;7.90;99.90
28189;DHT22;15471;51.166;4.470;2023-04-25T00:08:13;7.90;99.90
28189;DHT22;15471;51.166;4.470;2023-04-25T00:10:39;7.80;99.90
28189;DHT22;15471;51.166;4.470;2023-04-25T00:13:05;7.90;99.90
28189;DHT22;15471;51.166;4.470;2023-04-25T00:15:32;7.90;99.90
28189;DHT22;15471;51.166;4.470;2023-04-25T00:17:58;7.80;99.90
28189;DHT22;15471;51.166;4.470;2023-04-25T00:20:24;7.80;99.90
28189;DHT22;15471;51.166;4.470;2023-04-25T00:22:50;7.80;99.90
28189;DHT22;15471;51.166;4.470;2023-04-25T00:25:19;7.70;99.90
28189;DHT22;15471;51.166;4.470;2023-04-25T00:27:45;7.70;99.90
28189;DHT22;15471;51.166;4.470;2023-04-25T00:30:12;7.70;99.90
28189;DHT22;15471;51.166;4.470;2023-04-25T00:32:38;7.70;99.90
28189;DHT22;15471;51.166;4.470;2023-04-25T00:35:04;7.70;99.90
28189;DHT22;15471;51.166;4.470;2023-04-25T00:37:32;7.70;99.90
28189;DHT22;15471;51.166;4.470;2023-04-25T00:39:58;7.70;99.90
28189;DHT22;15471;51.166;4.470;2023-04-25T00:42:25;7.70;99.90
28189;DHT22;15471;51.166;4.470;2023-04-25T00:44:52;7.70;99.90
28189;DHT22;15471;51.166;4.470;2023-04-25T00:47:19;7.70;99.90
28189;DHT22;15471;51.166;4.470;2023-04-25T00:49:45;7.70;99.90
28189;DHT22;15471;51.166;4.470;2023-04-25T00:52:12;7.70;99.90
28189;DHT22;15471;51.166;4.470;2023-04-25T00:54:38;7.70;99.90
28189;DHT22;15471;51.166;4.470;2023-04-25T00:57:04;7.80;99.90
28189;DHT22;15471;51.166;4.470;2023-04-25T00:59:30;7.80;99.90
28189;DHT22;15471;51.166;4.470;2023-04-25T01:01:57;7.80;99.90
28189;DHT22;15471;51.166;4.470;2023-04-25T01:04:26;7.70;99.90
28189;DHT22;15471;51.166;4.470;2023-04-25T01:06:52;7.70;99.90
28189;DHT22;15471;51.166;4.470;2023-04-25T01:09:20;7.80;99.90
28189;DHT22;15471;51.166;4.470;2023-04-25T01:11:46;7.80;99.90
28189;DHT22;15471;51.166;4.470;2023-04-25T01:14:12;7.70;99.90
28189;DHT22;15471;51.166;4.470;2023-04-25T01:16:38;7.70;99.90
28189;DHT22;15471;51.166;4.470;2023-04-25T01:19:09;7.70;99.90
28189;DHT22;15471;51.166;4.470;2023-04-25T01:21:39;7.70;99.90
28189;DHT22;15471;51.166;4.470;2023-04-25T01:24:06;7.70;99.90
28189;DHT22;15471;51.166;4.470;2023-04-25T01:26:33;7.70;99.90
28189;DHT22;15471;51.166;4.470;2023-04-25T01:29:01;7.70;99.90
28189;DHT22;15471;51.166;4.470;2023-04-25T01:31:28;7.70;99.90
28189;DHT22;15471;51.166;4.470;2023-04-25T01:33:54;7.70;99.90
28189;DHT22;15471;51.166;4.470;2023-04-25T01:36:21;7.70;99.90
28189;DHT22;15471;51.166;4.470;2023-04-25T01:38:47;7.70;99.90
28189;DHT22;15471;51.166;4.470;2023-04-25T01:41:15;7.70;99.90
28189;DHT22;15471;51.166;4.470;2023-04-25T01:43:44;7.70;99.90
28189;DHT22;15471;51.166;4.470;2023-04-25T01:46:11;7.70;99.90
28189;DHT22;15471;51.166;4.470;2023-04-25T01:48:37;7.80;99.90
28189;DHT22;15471;51.166;4.470;2023-04-25T01:51:04;7.80;99.90
28189;DHT22;15471;51.166;4.470;2023-04-25T01:53:30;7.80;99.90
28189;DHT22;15471;51.166;4.470;2023-04-25T01:55:57;7.70;99.90
28189;DHT22;15471;51.166;4.470;2023-04-25T01:58:25;7.60;99.90
28189;DHT22;15471;51.166;4.470;2023-04-25T02:01:12;7.50;99.90
28189;DHT22;15471;51.166;4.470;2023-04-25T02:03:44;7.40;99.90
28189;DHT22;15471;51.166;4.470;2023-04-25T02:06:19;7.50;99.90
28189;DHT22;15471;51.166;4.470;2023-04-25T02:08:47;7.50;99.90
28189;DHT22;15471;51.166;4.470;2023-04-25T02:11:13;7.50;99.90
28189;DHT22;15471;51.166;4.470;2023-04-25T02:13:59;7.50;99.90
28189;DHT22;15471;51.166;4.470;2023-04-25T02:16:53;7.60;99.90
28189;DHT22;15471;51.166;4.470;2023-04-25T02:19:19;7.60;99.90
28189;DHT22;15471;51.166;4.470;2023-04-25T02:21:47;7.60;99.90
28189;DHT22;15471;51.166;4.470;2023-04-25T02:24:13;7.50;99.90
28189;DHT22;15471;51.166;4.470;2023-04-25T02:26:39;7.30;99.90
28189;DHT22;15471;51.166;4.470;2023-04-25T02:29:09;7.20;99.90
28189;DHT22;15471;51.166;4.470;2023-04-25T02:31:36;7.00;99.90
28189;DHT22;15471;51.166;4.470;2023-04-25T02:34:02;6.90;99.90
28189;DHT22;15471;51.166;4.470;2023-04-25T02:36:30;6.60;99.90
28189;DHT22;15471;51.166;4.470;2023-04-25T02:39:01;6.40;99.90
28189;DHT22;15471;51.166;4.470;2023-04-25T02:41:29;6.30;99.90
28189;DHT22;15471;51.166;4.470;2023-04-25T02:43:55;6.20;99.90
28189;DHT22;15471;51.166;4.470;2023-04-25T02:46:21;6.20;99.90
28189;DHT22;15471;51.166;4.470;2023-04-25T02:48:47;6.20;99.90
28189;DHT22;15471;51.166;4.470;2023-04-25T02:51:15;6.20;99.90
28189;DHT22;15471;51.166;4.470;2023-04-25T02:53:43;6.30;99.90
28189;DHT22;15471;51.166;4.470;2023-04-25T02:56:09;6.30;99.90
28189;DHT22;15471;51.166;4.470;2023-04-25T02:58:35;6.40;99.90
28189;DHT22;15471;51.166;4.470;2023-04-25T03:01:01;6.50;99.90
28189;DHT22;15471;51.166;4.470;2023-04-25T03:03:28;6.60;99.90
28189;DHT22;15471;51.166;4.470;2023-04-25T03:05:54;6.60;99.90
28189;DHT22;15471;51.166;4.470;2023-04-25T03:08:24;6.70;99.90
28189;DHT22;15471;51.166;4.470;2023-04-25T03:10:53;6.70;99.90
28189;DHT22;15471;51.166;4.470;2023-04-25T03:13:21;6.80;99.90
28189;DHT22;15471;51.166;4.470;2023-04-25T03:15:47;6.80;99.90
28189;DHT22;15471;51.166;4.470;2023-04-25T03:18:13;6.80;99.90
28189;DHT22;15471;51.166;4.470;2023-04-25T03:20:39;6.80;99.90
28189;DHT22;15471;51.166;4.470;2023-04-25T03:23:08;6.80;99.90
28189;DHT22;15471;51.166;4.470;2023-04-25T03:25:35;6.80;99.90
28189;DHT22;15471;51.166;4.470;2023-04-25T03:28:01;6.80;99.90
28189;DHT22;15471;51.166;4.470;2023-04-25T03:30:27;6.70;99.90
28189;DHT22;15471;51.166;4.470;2023-04-25T03:32:53;6.60;99.90
28189;DHT22;15471;51.166;4.470;2023-04-25T03:35:19;6.60;99.90
28189;DHT22;15471;51.166;4.470;2023-04-25T03:37:45;6.60;99.90
28189;DHT22;15471;51.166;4.470;2023-04-25T03:40:15;6.50;99.90
28189;DHT22;15471;51.166;4.470;2023-04-25T03:42:59;6.50;99.90
28189;DHT22;15471;51.166;4.470;2023-04-25T03:45:25;6.60;99.90
28189;DHT22;15471;51.166;4.470;2023-04-25T03:47:51;6.60;99.90
28189;DHT22;15471;51.166;4.470;2023-04-25T03:50:17;6.50;99.90
28189;DHT22;15471;51.166;4.470;2023-04-25T03:52:43;6.50;99.90
28189;DHT22;15471;51.166;4.470;2023-04-25T03:55:10;6.40;99.90
28189;DHT22;15471;51.166;4.470;2023-04-25T03:57:36;6.40;99.90
28189;DHT22;15471;51.166;4.470;2023-04-25T04:00:03;6.40;99.90
28189;DHT22;15471;51.166;4.470;2023-04-25T04:02:39;6.40;99.90
28189;DHT22;15471;51.166;4.470;2023-04-25T04:05:07;6.30;99.90
28189;DHT22;15471;51.166;4.470;2023-04-25T04:07:36;6.40;99.90
28189;DHT22;15471;51.166;4.470;2023-04-25T04:10:09;6.40;99.90
28189;DHT22;15471;51.166;4.470;2023-04-25T04:12:38;6.40;99.90
28189;DHT22;15471;51.166;4.470;2023-04-25T04:15:05;6.40;99.90
28189;DHT22;15471;51.166;4.470;2023-04-25T04:17:32;6.30;99.90
28189;DHT22;15471;51.166;4.470;2023-04-25T04:19:58;6.30;99.90
28189;DHT22;15471;51.166;4.470;2023-04-25T04:22:25;6.20;99.90
28189;DHT22;15471;51.166;4.470;2023-04-25T04:24:54;6.20;99.90
28189;DHT22;15471;51.166;4.470;2023-04-25T04:27:32;6.10;99.90
28189;DHT22;15471;51.166;4.470;2023-04-25T04:30:33;6.00;99.90
28189;DHT22;15471;51.166;4.470;2023-04-25T04:33:05;6.00;99.90
28189;DHT22;15471;51.166;4.470;2023-04-25T04:35:31;6.10;99.90
28189;DHT22;15471;51.166;4.470;2023-04-25T04:37:58;6.10;99.90
28189;DHT22;15471;51.166;4.470;2023-04-25T04:40:28;6.00;99.90
28189;DHT22;15471;51.166;4.470;2023-04-25T04:43:09;6.10;99.90
28189;DHT22;15471;51.166;4.470;2023-04-25T04:46:10;6.20;99.90
28189;DHT22;15471;51.166;4.470;2023-04-25T04:48:56;6.20;99.90
28189;DHT22;15471;51.166;4.470;2023-04-25T04:51:40;6.40;99.90
28189;DHT22;15471;51.166;4.470;2023-04-25T04:54:33;6.40;99.90
28189;DHT22;15471;51.166;4.470;2023-04-25T04:57:36;6.60;99.90
28189;DHT22;15471;51.166;4.470;2023-04-25T05:00:31;6.80;99.90
28189;DHT22;15471;51.166;4.470;2023-04-25T05:03:12;6.90;99.90
28189;DHT22;15471;51.166;4.470;2023-04-25T05:06:02;6.90;99.90
28189;DHT22;15471;51.166;4.470;2023-04-25T05:08:34;6.80;99.90
28189;DHT22;15471;51.166;4.470;2023-04-25T05:11:11;6.80;99.90
28189;DHT22;15471;51.166;4.470;2023-04-25T05:13:57;6.80;99.90
28189;DHT22;15471;51.166;4.470;2023-04-25T05:16:42;6.70;99.90
28189;DHT22;15471;51.166;4.470;2023-04-25T05:19:35;6.70;99.90
28189;DHT22;15471;51.166;4.470;2023-04-25T05:22:30;6.80;99.90
28189;DHT22;15471;51.166;4.470;2023-04-25T05:25:09;6.80;99.90
28189;DHT22;15471;51.166;4.470;2023-04-25T05:27:54;6.60;99.90
28189;DHT22;15471;51.166;4.470;2023-04-25T05:30:45;6.60;99.90
28189;DHT22;15471;51.166;4.470;2023-04-25T05:33:27;6.70;99.90
28189;DHT22;15471;51.166;4.470;2023-04-25T05:35:53;6.80;99.90
28189;DHT22;15471;51.166;4.470;2023-04-25T05:38:20;6.80;99.90
28189;DHT22;15471;51.166;4.470;2023-04-25T05:41:24;6.70;99.90
28189;DHT22;15471;51.166;4.470;2023-04-25T05:44:12;6.70;99.90
28189;DHT22;15471;51.166;4.470;2023-04-25T05:46:50;6.70;99.90
28189;DHT22;15471;51.166;4.470;2023-04-25T05:49:42;6.70;99.90
28189;DHT22;15471;51.166;4.470;2023-04-25T05:52:37;6.80;99.90
28189;DHT22;15471;51.166;4.470;2023-04-25T05:55:15;6.90;99.90
28189;DHT22;15471;51.166;4.470;2023-04-25T05:57:41;6.90;99.90
28189;DHT22;15471;51.166;4.470;2023-04-25T06:00:15;7.00;99.90
28189;DHT22;15471;51.166;4.470;2023-04-25T06:02:43;7.10;99.90
28189;DHT22;15471;51.166;4.470;2023-04-25T06:05:12;7.10;99.90
28189;DHT22;15471;51.166;4.470;2023-04-25T06:07:38;7.20;99.90
28189;DHT22;15471;51.166;4.470;2023-04-25T06:10:04;7.20;99.90
28189;DHT22;15471;51.166;4.470;2023-04-25T06:12:32;7.30;99.90
28189;DHT22;15471;51.166;4.470;2023-04-25T06:15:02;7.40;99.90
28189;DHT22;15471;51.166;4.470;2023-04-25T06:17:30;7.40;99.90
28189;DHT22;15471;51.166;4.470;2023-04-25T06:19:57;7.40;99.90
28189;DHT22;15471;51.166;4.470;2023-04-25T06:22:23;7.40;99.90
28189;DHT22;15471;51.166;4.470;2023-04-25T06:24:50;7.40;99.90
28189;DHT22;15471;51.166;4.470;2023-04-25T06:27:16;7.50;99.90
28189;DHT22;15471;51.166;4.470;2023-04-25T06:29:42;7.40;99.90
28189;DHT22;15471;51.166;4.470;2023-04-25T06:32:08;7.30;99.90
28189;DHT22;15471;51.166;4.470;2023-04-25T06:34:34;7.20;99.90
28189;DHT22;15471;51.166;4.470;2023-04-25T06:37:01;7.20;99.90
28189;DHT22;15471;51.166;4.470;2023-04-25T06:39:27;7.20;99.90
28189;DHT22;15471;51.166;4.470;2023-04-25T06:41:54;7.10;99.90
28189;DHT22;15471;51.166;4.470;2023-04-25T06:44:56;7.20;99.90
28189;DHT22;15471;51.166;4.470;2023-04-25T06:47:25;7.20;99.90
28189;DHT22;15471;51.166;4.470;2023-04-25T06:49:51;7.10;99.90
28189;DHT22;15471;51.166;4.470;2023-04-25T06:52:17;7.10;99.90
28189;DHT22;15471;51.166;4.470;2023-04-25T06:54:44;7.00;99.90
28189;DHT22;15471;51.166;4.470;2023-04-25T06:57:42;7.00;99.90
28189;DHT22;15471;51.166;4.470;2023-04-25T07:00:28;7.00;99.90
28189;DHT22;15471;51.166;4.470;2023-04-25T07:02:55;7.00;99.90
28189;DHT22;15471;51.166;4.470;2023-04-25T07:05:21;7.00;99.90
28189;DHT22;15471;51.166;4.470;2023-04-25T07:07:47;7.10;99.90
28189;DHT22;15471;51.166;4.470;2023-04-25T07:10:13;7.20;99.90
28189;DHT22;15471;51.166;4.470;2023-04-25T07:12:39;7.30;99.90
28189;DHT22;15471;51.166;4.470;2023-04-25T07:15:07;7.40;99.90
28189;DHT22;15471;51.166;4.470;2023-04-25T07:17:37;7.40;99.90
28189;DHT22;15471;51.166;4.470;2023-04-25T07:20:04;7.40;99.90
28189;DHT22;15471;51.166;4.470;2023-04-25T07:22:32;7.40;99.90
28189;DHT22;15471;51.166;4.470;2023-04-25T07:24:58;7.40;99.90
28189;DHT22;15471;51.166;4.470;2023-04-25T07:27:27;7.40;99.90
28189;DHT22;15471;51.166;4.470;2023-04-25T07:30:10;7.50;99.90
28189;DHT22;15471;51.166;4.470;2023-04-25T07:32:38;7.50;99.90
28189;DHT22;15471;51.166;4.470;2023-04-25T07:35:05;7.60;99.90
28189;DHT22;15471;51.166;4.470;2023-04-25T07:37:34;7.70;99.90
28189;DHT22;15471;51.166;4.470;2023-04-25T07:40:06;7.80;99.90
28189;DHT22;15471;51.166;4.470;2023-04-25T07:42:35;7.90;99.90
28189;DHT22;15471;51.166;4.470;2023-04-25T07:45:02;7.80;99.90
28189;DHT22;15471;51.166;4.470;2023-04-25T07:47:29;7.80;99.90
28189;DHT22;15471;51.166;4.470;2023-04-25T07:49:56;8.00;99.90
28189;DHT22;15471;51.166;4.470;2023-04-25T07:52:24;8.10;99.90
28189;DHT22;15471;51.166;4.470;2023-04-25T07:54:58;8.20;99.90
28189;DHT22;15471;51.166;4.470;2023-04-25T07:57:33;8.30;99.90
28189;DHT22;15471;51.166;4.470;2023-04-25T08:00:00;8.40;99.90
28189;DHT22;15471;51.166;4.470;2023-04-25T08:02:28;8.50;99.90
28189;DHT22;15471;51.166;4.470;2023-04-25T08:04:54;8.60;99.90
28189;DHT22;15471;51.166;4.470;2023-04-25T08:07:21;8.80;99.90
28189;DHT22;15471;51.166;4.470;2023-04-25T08:09:51;9.10;99.90
28189;DHT22;15471;51.166;4.470;2023-04-25T08:12:29;9.00;99.90
28189;DHT22;15471;51.166;4.470;2023-04-25T08:14:55;9.00;99.90
28189;DHT22;15471;51.166;4.470;2023-04-25T08:17:24;8.80;99.90
28189;DHT22;15471;51.166;4.470;2023-04-25T08:19:50;8.50;99.90
28189;DHT22;15471;51.166;4.470;2023-04-25T08:22:23;8.30;99.90
28189;DHT22;15471;51.166;4.470;2023-04-25T08:24:54;8.10;99.90
28189;DHT22;15471;51.166;4.470;2023-04-25T08:27:21;8.00;99.90
28189;DHT22;15471;51.166;4.470;2023-04-25T08:29:47;7.80;99.90
28189;DHT22;15471;51.166;4.470;2023-04-25T08:32:14;7.80;99.90
28189;DHT22;15471;51.166;4.470;2023-04-25T08:34:50;7.80;99.90
28189;DHT22;15471;51.166;4.470;2023-04-25T08:37:20;7.80;99.90
28189;DHT22;15471;51.166;4.470;2023-04-25T08:39:53;7.90;99.90
28189;DHT22;15471;51.166;4.470;2023-04-25T08:42:49;8.50;99.90
28189;DHT22;15471;51.166;4.470;2023-04-25T08:45:16;9.80;99.90
28189;DHT22;15471;51.166;4.470;2023-04-25T08:47:44;10.00;99.90
28189;DHT22;15471;51.166;4.470;2023-04-25T08:50:11;10.10;99.90
28189;DHT22;15471;51.166;4.470;2023-04-25T08:52:43;10.50;99.90
28189;DHT22;15471;51.166;4.470;2023-04-25T08:55:12;11.50;99.90
28189;DHT22;15471;51.166;4.470;2023-04-25T08:57:43;12.50;99.90
28189;DHT22;15471;51.166;4.470;2023-04-25T09:00:10;14.00;99.90
28189;DHT22;15471;51.166;4.470;2023-04-25T09:02:42;14.00;99.90
28189;DHT22;15471;51.166;4.470;2023-04-25T09:05:09;13.90;99.90
28189;DHT22;15471;51.166;4.470;2023-04-25T09:07:38;14.00;99.90
28189;DHT22;15471;51.166;4.470;2023-04-25T09:10:04;13.30;99.90
28189;DHT22;15471;51.166;4.470;2023-04-25T09:12:35;13.00;99.90
28189;DHT22;15471;51.166;4.470;2023-04-25T09:15:07;12.30;99.90
28189;DHT22;15471;51.166;4.470;2023-04-25T09:17:56;12.10;99.90
28189;DHT22;15471;51.166;4.470;2023-04-25T09:20:23;12.00;99.90
28189;DHT22;15471;51.166;4.470;2023-04-25T09:23:02;12.40;99.90
28189;DHT22;15471;51.166;4.470;2023-04-25T09:25:37;13.00;99.90
28189;DHT22;15471;51.166;4.470;2023-04-25T09:28:06;12.90;99.90
28189;DHT22;15471;51.166;4.470;2023-04-25T09:30:34;13.10;99.90
28189;DHT22;15471;51.166;4.470;2023-04-25T09:33:19;13.20;99.90
28189;DHT22;15471;51.166;4.470;2023-04-25T09:35:49;12.70;99.90
28189;DHT22;15471;51.166;4.470;2023-04-25T09:38:43;12.20;99.90
28189;DHT22;15471;51.166;4.470;2023-04-25T09:41:23;11.80;99.90
28189;DHT22;15471;51.166;4.470;2023-04-25T09:43:50;11.10;99.90
28189;DHT22;15471;51.166;4.470;2023-04-25T09:46:16;10.80;99.90
28189;DHT22;15471;51.166;4.470;2023-04-25T09:48:52;11.00;99.90
28189;DHT22;15471;51.166;4.470;2023-04-25T09:51:26;10.80;99.90
28189;DHT22;15471;51.166;4.470;2023-04-25T09:53:54;10.60;99.90
28189;DHT22;15471;51.166;4.470;2023-04-25T09:56:41;10.20;99.90
28189;DHT22;15471;51.166;4.470;2023-04-25T09:59:08;9.80;99.90
28189;DHT22;15471;51.166;4.470;2023-04-25T10:01:40;9.80;99.90
28189;DHT22;15471;51.166;4.470;2023-04-25T10:04:26;10.00;99.90
28189;DHT22;15471;51.166;4.470;2023-04-25T10:07:05;10.10;99.90
28189;DHT22;15471;51.166;4.470;2023-04-25T10:09:32;10.10;99.90
28189;DHT22;15471;51.166;4.470;2023-04-25T10:12:01;9.90;99.90
28189;DHT22;15471;51.166;4.470;2023-04-25T10:14:30;9.70;99.90
28189;DHT22;15471;51.166;4.470;2023-04-25T10:16:58;9.70;99.90
28189;DHT22;15471;51.166;4.470;2023-04-25T10:19:24;9.90;99.90
28189;DHT22;15471;51.166;4.470;2023-04-25T10:24:39;10.30;99.90
28189;DHT22;15471;51.166;4.470;2023-04-25T10:27:06;10.30;99.90
28189;DHT22;15471;51.166;4.470;2023-04-25T10:29:33;10.30;99.90
28189;DHT22;15471;51.166;4.470;2023-04-25T10:31:59;10.00;99.90
28189;DHT22;15471;51.166;4.470;2023-04-25T10:34:39;9.70;99.90
28189;DHT22;15471;51.166;4.470;2023-04-25T10:37:11;9.50;99.90
28189;DHT22;15471;51.166;4.470;2023-04-25T10:39:40;9.40;99.90
28189;DHT22;15471;51.166;4.470;2023-04-25T10:42:07;9.50;99.90
28189;DHT22;15471;51.166;4.470;2023-04-25T10:44:37;9.60;99.90
28189;DHT22;15471;51.166;4.470;2023-04-25T10:47:06;9.80;99.90
28189;DHT22;15471;51.166;4.470;2023-04-25T10:49:34;9.90;99.90
28189;DHT22;15471;51.166;4.470;2023-04-25T10:52:28;10.00;99.90
28189;DHT22;15471;51.166;4.470;2023-04-25T10:54:58;10.30;99.90
28189;DHT22;15471;51.166;4.470;2023-04-25T10:57:40;10.20;99.90
28189;DHT22;15471;51.166;4.470;2023-04-25T11:00:22;10.00;99.90
28189;DHT22;15471;51.166;4.470;2023-04-25T11:02:57;10.00;99.90
28189;DHT22;15471;51.166;4.470;2023-04-25T11:05:33;9.80;99.90
28189;DHT22;15471;51.166;4.470;2023-04-25T11:08:00;10.00;99.90
28189;DHT22;15471;51.166;4.470;2023-04-25T11:10:27;10.20;99.90
28189;DHT22;15471;51.166;4.470;2023-04-25T11:12:53;10.30;99.90
28189;DHT22;15471;51.166;4.470;2023-04-25T11:15:19;10.30;99.90
28189;DHT22;15471;51.166;4.470;2023-04-25T11:17:45;10.30;99.90
28189;DHT22;15471;51.166;4.470;2023-04-25T11:20:13;10.20;99.90
28189;DHT22;15471;51.166;4.470;2023-04-25T11:22:40;10.10;99.90
28189;DHT22;15471;51.166;4.470;2023-04-25T11:25:11;10.00;99.90
28189;DHT22;15471;51.166;4.470;2023-04-25T11:30:26;10.00;99.90
28189;DHT22;15471;51.166;4.470;2023-04-25T11:33:26;10.00;99.90
28189;DHT22;15471;51.166;4.470;2023-04-25T11:35:56;10.30;99.90
28189;DHT22;15471;51.166;4.470;2023-04-25T11:38:25;10.50;99.90
28189;DHT22;15471;51.166;4.470;2023-04-25T11:40:52;10.50;99.90
28189;DHT22;15471;51.166;4.470;2023-04-25T11:43:22;10.60;99.90
28189;DHT22;15471;51.166;4.470;2023-04-25T11:45:51;10.50;99.90
28189;DHT22;15471;51.166;4.470;2023-04-25T11:48:18;10.70;99.90
28189;DHT22;15471;51.166;4.470;2023-04-25T11:50:44;10.90;99.90
28189;DHT22;15471;51.166;4.470;2023-04-25T11:53:11;11.00;99.90
28189;DHT22;15471;51.166;4.470;2023-04-25T11:55:37;11.40;99.90
28189;DHT22;15471;51.166;4.470;2023-04-25T11:58:04;11.30;99.90
28189;DHT22;15471;51.166;4.470;2023-04-25T12:00:31;11.50;99.90
28189;DHT22;15471;51.166;4.470;2023-04-25T12:03:10;11.30;99.90
28189;DHT22;15471;51.166;4.470;2023-04-25T12:05:36;10.90;99.90
28189;DHT22;15471;51.166;4.470;2023-04-25T12:08:10;10.60;99.90
28189;DHT22;15471;51.166;4.470;2023-04-25T12:10:38;10.40;99.90
28189;DHT22;15471;51.166;4.470;2023-04-25T12:13:23;10.40;99.90
28189;DHT22;15471;51.166;4.470;2023-04-25T12:15:50;10.40;99.90
28189;DHT22;15471;51.166;4.470;2023-04-25T12:18:35;10.30;99.90
28189;DHT22;15471;51.166;4.470;2023-04-25T12:21:04;10.20;99.90
28189;DHT22;15471;51.166;4.470;2023-04-25T12:23:30;10.50;99.90
28189;DHT22;15471;51.166;4.470;2023-04-25T12:25:57;10.60;99.90
28189;DHT22;15471;51.166;4.470;2023-04-25T12:28:24;10.60;99.90
28189;DHT22;15471;51.166;4.470;2023-04-25T12:31:17;10.60;99.90
28189;DHT22;15471;51.166;4.470;2023-04-25T12:34:04;10.70;99.90
28189;DHT22;15471;51.166;4.470;2023-04-25T12:36:30;11.00;99.90
28189;DHT22;15471;51.166;4.470;2023-04-25T12:38:56;11.00;99.90
28189;DHT22;15471;51.166;4.470;2023-04-25T12:41:30;11.10;99.90
28189;DHT22;15471;51.166;4.470;2023-04-25T12:43:56;10.80;99.90
28189;DHT22;15471;51.166;4.470;2023-04-25T12:46:22;10.90;99.90
28189;DHT22;15471;51.166;4.470;2023-04-25T12:48:51;10.90;99.90
28189;DHT22;15471;51.166;4.470;2023-04-25T12:51:17;11.10;99.90
28189;DHT22;15471;51.166;4.470;2023-04-25T12:53:43;11.00;99.90
28189;DHT22;15471;51.166;4.470;2023-04-25T12:56:36;10.90;99.90
28189;DHT22;15471;51.166;4.470;2023-04-25T12:59:52;10.80;99.90
28189;DHT22;15471;51.166;4.470;2023-04-25T13:02:28;10.80;99.90
28189;DHT22;15471;51.166;4.470;2023-04-25T13:05:06;11.00;99.90
28189;DHT22;15471;51.166;4.470;2023-04-25T13:07:32;11.30;99.90
28189;DHT22;15471;51.166;4.470;2023-04-25T13:09:58;11.30;99.90
28189;DHT22;15471;51.166;4.470;2023-04-25T13:12:25;11.30;99.90
28189;DHT22;15471;51.166;4.470;2023-04-25T13:14:51;11.30;99.90
28189;DHT22;15471;51.166;4.470;2023-04-25T13:17:20;11.20;99.90
28189;DHT22;15471;51.166;4.470;2023-04-25T13:19:46;11.30;99.90
28189;DHT22;15471;51.166;4.470;2023-04-25T13:22:12;11.20;99.90
28189;DHT22;15471;51.166;4.470;2023-04-25T13:24:40;10.90;99.90
28189;DHT22;15471;51.166;4.470;2023-04-25T13:27:07;11.20;99.90
28189;DHT22;15471;51.166;4.470;2023-04-25T13:29:33;11.60;99.90
28189;DHT22;15471;51.166;4.470;2023-04-25T13:32:01;11.70;99.90
28189;DHT22;15471;51.166;4.470;2023-04-25T13:34:31;11.50;99.90
28189;DHT22;15471;51.166;4.470;2023-04-25T13:36:57;11.50;99.90
28189;DHT22;15471;51.166;4.470;2023-04-25T13:39:23;11.50;99.90
28189;DHT22;15471;51.166;4.470;2023-04-25T13:41:50;11.20;99.90
28189;DHT22;15471;51.166;4.470;2023-04-25T13:44:16;11.00;99.90
28189;DHT22;15471;51.166;4.470;2023-04-25T13:46:42;11.00;99.90
28189;DHT22;15471;51.166;4.470;2023-04-25T13:49:08;11.30;99.90
28189;DHT22;15471;51.166;4.470;2023-04-25T13:51:35;11.10;99.90
28189;DHT22;15471;51.166;4.470;2023-04-25T13:54:01;11.30;99.90
28189;DHT22;15471;51.166;4.470;2023-04-25T13:56:28;11.20;99.90
28189;DHT22;15471;51.166;4.470;2023-04-25T13:58:54;11.20;99.90
28189;DHT22;15471;51.166;4.470;2023-04-25T14:01:20;11.50;99.90
28189;DHT22;15471;51.166;4.470;2023-04-25T14:03:47;11.50;99.90
28189;DHT22;15471;51.166;4.470;2023-04-25T14:06:13;11.30;99.90
28189;DHT22;15471;51.166;4.470;2023-04-25T14:08:39;11.40;99.90
28189;DHT22;15471;51.166;4.470;2023-04-25T14:11:05;11.50;99.90
28189;DHT22;15471;51.166;4.470;2023-04-25T14:13:31;11.60;99.90
28189;DHT22;15471;51.166;4.470;2023-04-25T14:15:58;11.60;99.90
28189;DHT22;15471;51.166;4.470;2023-04-25T14:18:27;11.40;99.90
28189;DHT22;15471;51.166;4.470;2023-04-25T14:20:53;11.30;99.90
28189;DHT22;15471;51.166;4.470;2023-04-25T14:23:20;11.20;99.90
28189;DHT22;15471;51.166;4.470;2023-04-25T14:25:48;11.30;99.90
28189;DHT22;15471;51.166;4.470;2023-04-25T14:28:15;11.40;99.90
28189;DHT22;15471;51.166;4.470;2023-04-25T14:30:42;11.30;99.90
28189;DHT22;15471;51.166;4.470;2023-04-25T14:33:08;11.60;99.90
28189;DHT22;15471;51.166;4.470;2023-04-25T14:35:37;11.60;99.90
28189;DHT22;15471;51.166;4.470;2023-04-25T14:38:03;11.50;99.90
28189;DHT22;15471;51.166;4.470;2023-04-25T14:40:31;11.40;99.90
28189;DHT22;15471;51.166;4.470;2023-04-25T14:42:57;11.40;99.90
28189;DHT22;15471;51.166;4.470;2023-04-25T14:45:23;11.60;99.90
28189;DHT22;15471;51.166;4.470;2023-04-25T14:47:52;11.60;99.90
28189;DHT22;15471;51.166;4.470;2023-04-25T14:50:18;11.50;99.90
28189;DHT22;15471;51.166;4.470;2023-04-25T14:52:45;11.50;99.90
28189;DHT22;15471;51.166;4.470;2023-04-25T14:55:11;11.30;99.90
28189;DHT22;15471;51.166;4.470;2023-04-25T14:57:37;11.30;99.90
28189;DHT22;15471;51.166;4.470;2023-04-25T15:00:11;11.40;99.90
28189;DHT22;15471;51.166;4.470;2023-04-25T15:02:41;11.30;99.90
28189;DHT22;15471;51.166;4.470;2023-04-25T15:05:07;11.30;99.90
28189;DHT22;15471;51.166;4.470;2023-04-25T15:07:37;11.00;99.90
28189;DHT22;15471;51.166;4.470;2023-04-25T15:10:06;11.10;99.90
28189;DHT22;15471;51.166;4.470;2023-04-25T15:12:37;11.30;99.90
28189;DHT22;15471;51.166;4.470;2023-04-25T15:15:03;11.60;99.90
28189;DHT22;15471;51.166;4.470;2023-04-25T15:17:31;11.50;99.90
28189;DHT22;15471;51.166;4.470;2023-04-25T15:19:57;11.10;99.90
28189;DHT22;15471;51.166;4.470;2023-04-25T15:22:23;11.10;99.90
28189;DHT22;15471;51.166;4.470;2023-04-25T15:24:49;10.90;99.90
28189;DHT22;15471;51.166;4.470;2023-04-25T15:27:16;10.90;99.90
28189;DHT22;15471;51.166;4.470;2023-04-25T15:29:42;11.00;99.90
28189;DHT22;15471;51.166;4.470;2023-04-25T15:32:08;11.30;99.90
28189;DHT22;15471;51.166;4.470;2023-04-25T15:34:34;11.40;99.90
28189;DHT22;15471;51.166;4.470;2023-04-25T15:37:00;11.30;99.90
28189;DHT22;15471;51.166;4.470;2023-04-25T15:39:26;11.10;99.90
28189;DHT22;15471;51.166;4.470;2023-04-25T15:41:52;11.00;99.90
28189;DHT22;15471;51.166;4.470;2023-04-25T15:47:02;11.30;99.90
28189;DHT22;15471;51.166;4.470;2023-04-25T15:49:31;12.60;99.90
28189;DHT22;15471;51.166;4.470;2023-04-25T15:51:57;13.70;99.90
28189;DHT22;15471;51.166;4.470;2023-04-25T16:03:47;15.10;94.90
28189;DHT22;15471;51.166;4.470;2023-04-25T16:06:13;16.10;93.30
28189;DHT22;15471;51.166;4.470;2023-04-25T16:08:46;16.40;91.40
28189;DHT22;15471;51.166;4.470;2023-04-25T16:11:12;18.10;87.30
28189;DHT22;15471;51.166;4.470;2023-04-25T16:13:48;20.10;77.20
28189;DHT22;15471;51.166;4.470;2023-04-25T16:16:28;20.40;65.80
28189;DHT22;15471;51.166;4.470;2023-04-25T16:18:57;21.40;63.70